UAE322 OMDB-RKSI
Flight info
| Callsign | UAE322 |
|---|---|
| Flight time | 8h 3m |
| Altitude | 33000 |
| Route | IVURO M428 TARBO Y220 ITLOB B505 PG G325 PURPA/K0917S1005 W112 TUSLI W187 IBANO B215 NUKTI W66 DKO W69 HUR B339 LADIX W34 VAPGU W100 ORAVA W201 UNSEK A326 DONVO G597 AGAVO/N0490F330 Y644 REBIT REBIT2H |
| Aircraft | B77W/H-SDE1E2E3FGHIJ2J3J4J5M1RWXY/LB1D1 |
Departure
| Time | 2026-04-24 16:41 |
|---|---|
| Airport | Dubai International Airport (OMDB) |
Arrival
| Time | 2026-04-25 00:44 |
|---|---|
| Airport | Incheon International Airport (RKSI) |
| Time | Latitude | Longitude | Altitude | Speed | Heading |
|---|---|---|---|---|---|
| 2026-04-24 16:24 | 25.24136 | 55.37562 | 26 ft | 0 kts | 301° |
| 2026-04-24 16:32 | 25.24132 | 55.37568 | 26 ft | 4 kts | 301° |
| 2026-04-24 16:32 | 25.24118 | 55.37594 | 31 ft | 4 kts | 301° |
| 2026-04-24 16:33 | 25.24104 | 55.37618 | 31 ft | 4 kts | 313° |
| 2026-04-24 16:33 | 25.24086 | 55.37634 | 31 ft | 4 kts | 341° |
| 2026-04-24 16:33 | 25.24068 | 55.37637 | 31 ft | 4 kts | 21° |
| 2026-04-24 16:33 | 25.24051 | 55.37627 | 31 ft | 4 kts | 31° |
| 2026-04-24 16:34 | 25.24031 | 55.37614 | 31 ft | 1 kts | 31° |
| 2026-04-24 16:36 | 25.24063 | 55.37635 | 31 ft | 15 kts | 31° |
| 2026-04-24 16:36 | 25.24194 | 55.37723 | 30 ft | 24 kts | 32° |
| 2026-04-24 16:37 | 25.24328 | 55.37814 | 28 ft | 10 kts | 33° |
| 2026-04-24 16:37 | 25.24352 | 55.37832 | 29 ft | 0 kts | 34° |
| 2026-04-24 16:38 | 25.24354 | 55.37833 | 29 ft | 2 kts | 34° |
| 2026-04-24 16:38 | 25.24378 | 55.37851 | 30 ft | 4 kts | 34° |
| 2026-04-24 16:38 | 25.24404 | 55.37871 | 32 ft | 7 kts | 34° |
| 2026-04-24 16:39 | 25.24476 | 55.37925 | 35 ft | 14 kts | 34° |
| 2026-04-24 16:39 | 25.24529 | 55.37964 | 33 ft | 15 kts | 34° |
| 2026-04-24 16:39 | 25.24597 | 55.38016 | 30 ft | 4 kts | 33° |
| 2026-04-24 16:39 | 25.24619 | 55.38031 | 30 ft | 4 kts | 31° |
| 2026-04-24 16:40 | 25.24704 | 55.38087 | 33 ft | 19 kts | 28° |
| 2026-04-24 16:40 | 25.24770 | 55.38081 | 35 ft | 13 kts | 320° |
| 2026-04-24 16:40 | 25.24821 | 55.38000 | 34 ft | 16 kts | 301° |
| 2026-04-24 16:40 | 25.24948 | 55.37770 | 35 ft | 67 kts | 301° |
| 2026-04-24 16:41 | 25.25331 | 55.37081 | 35 ft | 141 kts | 301° |
| 2026-04-24 16:41 | 25.25945 | 55.35964 | 114 ft | 190 kts | 302° |
| 2026-04-24 16:41 | 25.26636 | 55.34765 | 854 ft | 184 kts | 304° |
| 2026-04-24 16:41 | 25.27338 | 55.33525 | 1432 ft | 193 kts | 303° |
| 2026-04-24 16:42 | 25.28038 | 55.32243 | 2098 ft | 195 kts | 302° |
| 2026-04-24 16:42 | 25.28737 | 55.30946 | 2689 ft | 201 kts | 302° |
| 2026-04-24 16:42 | 25.29681 | 55.29745 | 2779 ft | 218 kts | 331° |
| 2026-04-24 16:42 | 25.31188 | 55.29391 | 3037 ft | 231 kts | 358° |
| 2026-04-24 16:43 | 25.32807 | 55.29435 | 3567 ft | 236 kts | 0° |
| 2026-04-24 16:43 | 25.34464 | 55.29507 | 4324 ft | 238 kts | 0° |
| 2026-04-24 16:43 | 25.36105 | 55.29581 | 5483 ft | 241 kts | 360° |
| 2026-04-24 16:43 | 25.37798 | 55.29640 | 6348 ft | 244 kts | 359° |
| 2026-04-24 16:44 | 25.39492 | 55.29892 | 6858 ft | 251 kts | 21° |
| 2026-04-24 16:44 | 25.40955 | 55.31119 | 7064 ft | 286 kts | 49° |
| 2026-04-24 16:44 | 25.42216 | 55.32908 | 7347 ft | 305 kts | 51° |
| 2026-04-24 16:44 | 25.43604 | 55.34856 | 7649 ft | 341 kts | 50° |
| 2026-04-24 16:45 | 25.45155 | 55.37009 | 8059 ft | 371 kts | 50° |
| 2026-04-24 16:45 | 25.46803 | 55.39272 | 8996 ft | 381 kts | 50° |
| 2026-04-24 16:45 | 25.48485 | 55.41575 | 10036 ft | 387 kts | 50° |
| 2026-04-24 16:45 | 25.50153 | 55.43928 | 11020 ft | 392 kts | 51° |
| 2026-04-24 16:46 | 25.51652 | 55.46460 | 11850 ft | 398 kts | 66° |
| 2026-04-24 16:46 | 25.52281 | 55.49463 | 12685 ft | 405 kts | 89° |
| 2026-04-24 16:46 | 25.51946 | 55.52565 | 13186 ft | 406 kts | 109° |
| 2026-04-24 16:46 | 25.50736 | 55.55376 | 14104 ft | 407 kts | 123° |
| 2026-04-24 16:47 | 25.49193 | 55.58047 | 14831 ft | 417 kts | 125° |
| 2026-04-24 16:47 | 25.47574 | 55.60751 | 15730 ft | 424 kts | 124° |
| 2026-04-24 16:47 | 25.45958 | 55.63499 | 16670 ft | 429 kts | 124° |
| 2026-04-24 16:47 | 25.44342 | 55.66310 | 17593 ft | 435 kts | 123° |
| 2026-04-24 16:48 | 25.42763 | 55.69186 | 18381 ft | 441 kts | 117° |
| 2026-04-24 16:48 | 25.41770 | 55.72409 | 18959 ft | 449 kts | 101° |
| 2026-04-24 16:48 | 25.41191 | 55.75827 | 19698 ft | 454 kts | 101° |
| 2026-04-24 16:48 | 25.40547 | 55.79266 | 20470 ft | 458 kts | 103° |
| 2026-04-24 16:49 | 25.39822 | 55.82714 | 21216 ft | 463 kts | 104° |
| 2026-04-24 16:49 | 25.39061 | 55.86189 | 21897 ft | 468 kts | 105° |
| 2026-04-24 16:49 | 25.38292 | 55.89718 | 22542 ft | 474 kts | 105° |
| 2026-04-24 16:49 | 25.37526 | 55.93278 | 23172 ft | 479 kts | 105° |
| 2026-04-24 16:50 | 25.37016 | 55.95666 | 23568 ft | 483 kts | 105° |
| 2026-04-24 16:50 | 25.35981 | 56.00519 | 24261 ft | 488 kts | 104° |
| 2026-04-24 16:50 | 25.35199 | 56.04188 | 24784 ft | 491 kts | 104° |
| 2026-04-24 16:50 | 25.34413 | 56.07867 | 25291 ft | 494 kts | 104° |
| 2026-04-24 16:51 | 25.33618 | 56.11582 | 25744 ft | 498 kts | 104° |
| 2026-04-24 16:51 | 25.32814 | 56.15319 | 26192 ft | 502 kts | 105° |
| 2026-04-24 16:51 | 25.31831 | 56.19036 | 26620 ft | 504 kts | 110° |
| 2026-04-24 16:51 | 25.30614 | 56.22676 | 27058 ft | 507 kts | 113° |
| 2026-04-24 16:52 | 25.29317 | 56.26312 | 27470 ft | 510 kts | 113° |
| 2026-04-24 16:52 | 25.28033 | 56.29991 | 27848 ft | 514 kts | 112° |
| 2026-04-24 16:52 | 25.26795 | 56.33700 | 28186 ft | 517 kts | 111° |
| 2026-04-24 16:52 | 25.25574 | 56.37449 | 28528 ft | 520 kts | 111° |
| 2026-04-24 16:53 | 25.24344 | 56.41219 | 28863 ft | 523 kts | 111° |
| 2026-04-24 16:53 | 25.23099 | 56.45003 | 29187 ft | 525 kts | 111° |
| 2026-04-24 16:53 | 25.21843 | 56.48801 | 29489 ft | 527 kts | 111° |
| 2026-04-24 16:53 | 25.20583 | 56.52607 | 29774 ft | 529 kts | 111° |
| 2026-04-24 16:54 | 25.19317 | 56.56433 | 30106 ft | 529 kts | 111° |
| 2026-04-24 16:54 | 25.18056 | 56.60191 | 30446 ft | 528 kts | 112° |
| 2026-04-24 16:54 | 25.16671 | 56.64000 | 30795 ft | 527 kts | 114° |
| 2026-04-24 16:54 | 25.15266 | 56.67675 | 31104 ft | 527 kts | 114° |
| 2026-04-24 16:55 | 25.13823 | 56.71389 | 31418 ft | 526 kts | 115° |
| 2026-04-24 16:55 | 25.12381 | 56.75100 | 31715 ft | 526 kts | 114° |
| 2026-04-24 16:55 | 25.10932 | 56.78860 | 32035 ft | 525 kts | 114° |
| 2026-04-24 16:55 | 25.09513 | 56.82575 | 32347 ft | 525 kts | 114° |
| 2026-04-24 16:56 | 25.08122 | 56.86235 | 32647 ft | 524 kts | 114° |
| 2026-04-24 16:56 | 25.06715 | 56.89949 | 32814 ft | 526 kts | 114° |
| 2026-04-24 16:56 | 25.03887 | 56.97416 | 32880 ft | 526 kts | 114° |
| 2026-04-24 16:57 | 25.01075 | 57.04820 | 32879 ft | 522 kts | 114° |
| 2026-04-24 16:57 | 24.98269 | 57.12188 | 32884 ft | 520 kts | 114° |
| 2026-04-24 16:58 | 24.95465 | 57.19534 | 32887 ft | 520 kts | 114° |
| 2026-04-24 16:58 | 24.92655 | 57.26884 | 32887 ft | 521 kts | 114° |
| 2026-04-24 16:59 | 24.89838 | 57.34239 | 32887 ft | 522 kts | 114° |
| 2026-04-24 17:00 | 24.85600 | 57.45285 | 32883 ft | 523 kts | 114° |
| 2026-04-24 17:00 | 24.81343 | 57.56349 | 32881 ft | 523 kts | 114° |
| 2026-04-24 17:01 | 24.77095 | 57.67367 | 32879 ft | 523 kts | 114° |
| 2026-04-24 17:02 | 24.73592 | 57.78701 | 32889 ft | 523 kts | 100° |
| 2026-04-24 17:02 | 24.72946 | 57.86644 | 32886 ft | 522 kts | 89° |
| 2026-04-24 17:03 | 24.73027 | 57.98603 | 32882 ft | 521 kts | 89° |
| 2026-04-24 17:04 | 24.73049 | 58.06567 | 32881 ft | 520 kts | 89° |
| 2026-04-24 17:04 | 24.73014 | 58.18488 | 32880 ft | 519 kts | 90° |
| 2026-04-24 17:05 | 24.72980 | 58.26376 | 32879 ft | 518 kts | 90° |
| 2026-04-24 17:06 | 24.72927 | 58.38265 | 32875 ft | 518 kts | 90° |
| 2026-04-24 17:06 | 24.72866 | 58.50164 | 32878 ft | 519 kts | 90° |
| 2026-04-24 17:07 | 24.72820 | 58.58104 | 32872 ft | 519 kts | 90° |
| 2026-04-24 17:08 | 24.72715 | 58.73999 | 32873 ft | 520 kts | 90° |
| 2026-04-24 17:08 | 24.72656 | 58.81962 | 32874 ft | 521 kts | 90° |
| 2026-04-24 17:09 | 24.72526 | 58.97890 | 32864 ft | 521 kts | 90° |
| 2026-04-24 17:10 | 24.72279 | 59.13812 | 32858 ft | 521 kts | 94° |
| 2026-04-24 17:12 | 24.69364 | 59.45472 | 32861 ft | 520 kts | 95° |
| 2026-04-24 18:54 | 33.36080 | 70.91226 | 32949 ft | 509 kts | 25° |
| 2026-04-24 18:55 | 33.45094 | 70.97970 | 32984 ft | 510 kts | 25° |
| 2026-04-24 18:56 | 33.50915 | 71.02809 | 32977 ft | 518 kts | 34° |
| 2026-04-24 18:56 | 33.56368 | 71.08476 | 32998 ft | 520 kts | 35° |
| 2026-04-24 18:57 | 33.61806 | 71.14209 | 32984 ft | 520 kts | 35° |
| 2026-04-24 18:57 | 33.67268 | 71.19903 | 32993 ft | 520 kts | 34° |
| 2026-04-24 18:58 | 33.72752 | 71.25587 | 32994 ft | 521 kts | 34° |
| 2026-04-24 18:58 | 33.78240 | 71.31282 | 32990 ft | 521 kts | 35° |
| 2026-04-24 18:59 | 33.83722 | 71.36989 | 32998 ft | 521 kts | 35° |
| 2026-04-24 18:59 | 33.89198 | 71.42704 | 32991 ft | 521 kts | 35° |
| 2026-04-24 19:00 | 33.94631 | 71.48382 | 32995 ft | 520 kts | 35° |
| 2026-04-24 19:00 | 33.99884 | 71.54399 | 32992 ft | 525 kts | 43° |
| 2026-04-24 19:01 | 34.04649 | 71.61086 | 33003 ft | 526 kts | 45° |
| 2026-04-24 19:01 | 34.09375 | 71.67823 | 32979 ft | 525 kts | 45° |
| 2026-04-24 19:02 | 34.13318 | 71.73395 | 32971 ft | 525 kts | 45° |
| 2026-04-24 19:02 | 34.18883 | 71.81210 | 32957 ft | 525 kts | 45° |
| 2026-04-24 19:03 | 34.22837 | 71.86763 | 32942 ft | 524 kts | 45° |
| 2026-04-24 19:03 | 34.28362 | 71.94542 | 32942 ft | 524 kts | 45° |
| 2026-04-24 19:04 | 34.33102 | 72.01235 | 32950 ft | 524 kts | 45° |
| 2026-04-24 19:04 | 34.37070 | 72.06847 | 32956 ft | 523 kts | 46° |
| 2026-04-24 19:05 | 34.41799 | 72.13546 | 32945 ft | 523 kts | 46° |
| 2026-04-24 19:05 | 34.46488 | 72.20202 | 32965 ft | 523 kts | 46° |
| 2026-04-24 19:06 | 34.51234 | 72.26954 | 32978 ft | 523 kts | 46° |
| 2026-04-24 19:06 | 34.55951 | 72.33674 | 32991 ft | 522 kts | 47° |
| 2026-04-24 19:07 | 34.60648 | 72.40380 | 33010 ft | 521 kts | 47° |
| 2026-04-24 19:07 | 34.65304 | 72.47041 | 33024 ft | 520 kts | 47° |
| 2026-04-24 19:08 | 34.69979 | 72.53741 | 33041 ft | 519 kts | 47° |
| 2026-04-24 19:08 | 34.74632 | 72.60421 | 33044 ft | 516 kts | 47° |
| 2026-04-24 19:09 | 34.79267 | 72.67090 | 33075 ft | 517 kts | 47° |
| 2026-04-24 19:09 | 34.81591 | 72.70438 | 33237 ft | 520 kts | 47° |
| 2026-04-24 19:09 | 34.83923 | 72.73802 | 33589 ft | 519 kts | 47° |
| 2026-04-24 19:09 | 34.86249 | 72.77161 | 34021 ft | 517 kts | 47° |
| 2026-04-24 19:10 | 34.88559 | 72.80498 | 34402 ft | 515 kts | 47° |
| 2026-04-24 19:10 | 34.90867 | 72.83834 | 34733 ft | 514 kts | 47° |
| 2026-04-24 19:10 | 34.93171 | 72.87170 | 34994 ft | 514 kts | 48° |
| 2026-04-24 19:11 | 34.97808 | 72.93897 | 35125 ft | 520 kts | 48° |
| 2026-04-24 19:11 | 35.02432 | 73.00620 | 35127 ft | 513 kts | 48° |
| 2026-04-24 19:12 | 35.07011 | 73.07290 | 35168 ft | 513 kts | 48° |
| 2026-04-24 19:12 | 35.11591 | 73.13973 | 35186 ft | 513 kts | 48° |
| 2026-04-24 19:13 | 35.15403 | 73.19547 | 35197 ft | 515 kts | 49° |
| 2026-04-24 19:13 | 35.20787 | 73.27430 | 35209 ft | 517 kts | 49° |
| 2026-04-24 19:14 | 35.25394 | 73.34200 | 35211 ft | 517 kts | 49° |
| 2026-04-24 19:14 | 35.29959 | 73.40915 | 35217 ft | 516 kts | 49° |
| 2026-04-24 19:15 | 35.34547 | 73.47676 | 35224 ft | 516 kts | 49° |
| 2026-04-24 19:15 | 35.39125 | 73.54436 | 35217 ft | 515 kts | 49° |
| 2026-04-24 19:16 | 35.45968 | 73.64566 | 35213 ft | 513 kts | 49° |
| 2026-04-24 19:16 | 35.50522 | 73.71324 | 35199 ft | 513 kts | 49° |
| 2026-04-24 19:17 | 35.55062 | 73.78074 | 35197 ft | 514 kts | 49° |
| 2026-04-24 19:17 | 35.59610 | 73.84850 | 35212 ft | 513 kts | 50° |
| 2026-04-24 19:18 | 35.64153 | 73.91630 | 35211 ft | 514 kts | 50° |
| 2026-04-24 19:18 | 35.68691 | 73.98417 | 35215 ft | 515 kts | 50° |
| 2026-04-24 19:19 | 35.73243 | 74.05241 | 35211 ft | 516 kts | 50° |
| 2026-04-24 19:19 | 35.77799 | 74.12083 | 35202 ft | 517 kts | 50° |
| 2026-04-24 19:20 | 35.82327 | 74.18895 | 35201 ft | 517 kts | 50° |
| 2026-04-24 19:20 | 35.86884 | 74.25767 | 35229 ft | 518 kts | 50° |
| 2026-04-24 19:21 | 35.91494 | 74.32605 | 35214 ft | 518 kts | 46° |
| 2026-04-24 19:21 | 35.96770 | 74.38622 | 35228 ft | 516 kts | 38° |
| 2026-04-24 19:22 | 36.02329 | 74.44262 | 35232 ft | 517 kts | 38° |
| 2026-04-24 19:22 | 36.07888 | 74.49933 | 35240 ft | 518 kts | 38° |
| 2026-04-24 19:23 | 36.13429 | 74.55663 | 35219 ft | 520 kts | 39° |
| 2026-04-24 19:23 | 36.18953 | 74.61415 | 35241 ft | 519 kts | 39° |
| 2026-04-24 19:24 | 36.24478 | 74.67178 | 35251 ft | 519 kts | 39° |
| 2026-04-24 19:24 | 36.29970 | 74.72915 | 35250 ft | 519 kts | 39° |
| 2026-04-24 19:25 | 36.35491 | 74.78687 | 35258 ft | 520 kts | 39° |
| 2026-04-24 19:25 | 36.41029 | 74.84490 | 35256 ft | 521 kts | 39° |
| 2026-04-24 19:26 | 36.46573 | 74.90315 | 35250 ft | 523 kts | 39° |
| 2026-04-24 19:26 | 36.52134 | 74.96166 | 35246 ft | 524 kts | 39° |
| 2026-04-24 19:27 | 36.57701 | 75.02033 | 35259 ft | 525 kts | 39° |
| 2026-04-24 19:27 | 36.63282 | 75.07925 | 35244 ft | 526 kts | 39° |
| 2026-04-24 19:28 | 36.68860 | 75.13828 | 35239 ft | 527 kts | 39° |
| 2026-04-24 19:28 | 36.74397 | 75.19705 | 35246 ft | 526 kts | 39° |
| 2026-04-24 19:29 | 36.82783 | 75.28616 | 35236 ft | 524 kts | 39° |
| 2026-04-24 19:30 | 36.88300 | 75.34497 | 35237 ft | 526 kts | 39° |
| 2026-04-24 19:30 | 36.93003 | 75.41356 | 35229 ft | 523 kts | 65° |
| 2026-04-24 19:30 | 36.94290 | 75.45590 | 35228 ft | 521 kts | 78° |
| 2026-04-24 19:31 | 36.94782 | 75.50041 | 35225 ft | 514 kts | 91° |
| 2026-04-24 19:31 | 36.94984 | 75.58999 | 35224 ft | 518 kts | 91° |
| 2026-04-24 19:32 | 36.95250 | 75.68053 | 35212 ft | 523 kts | 90° |
| 2026-04-24 19:32 | 36.95573 | 75.77158 | 35208 ft | 525 kts | 90° |
| 2026-04-24 19:33 | 36.95918 | 75.86287 | 35178 ft | 525 kts | 90° |
| 2026-04-24 19:33 | 36.96253 | 75.95387 | 35182 ft | 524 kts | 90° |
| 2026-04-24 19:34 | 36.96571 | 76.04428 | 35174 ft | 524 kts | 90° |
| 2026-04-24 19:34 | 36.96882 | 76.13523 | 35167 ft | 523 kts | 90° |
| 2026-04-24 19:35 | 36.97188 | 76.22614 | 35164 ft | 523 kts | 90° |
| 2026-04-24 19:35 | 36.97486 | 76.31688 | 35144 ft | 522 kts | 90° |
| 2026-04-24 19:36 | 36.97777 | 76.40745 | 35167 ft | 521 kts | 90° |
| 2026-04-24 19:36 | 36.98060 | 76.49799 | 35153 ft | 520 kts | 90° |
| 2026-04-24 19:37 | 36.98334 | 76.58833 | 35141 ft | 520 kts | 90° |
| 2026-04-24 19:37 | 36.98604 | 76.67872 | 35131 ft | 519 kts | 90° |
| 2026-04-24 19:38 | 36.98866 | 76.76897 | 35123 ft | 520 kts | 90° |
| 2026-04-24 19:38 | 36.99120 | 76.85938 | 35105 ft | 519 kts | 90° |
| 2026-04-24 19:39 | 36.99368 | 76.94961 | 35097 ft | 519 kts | 90° |
| 2026-04-24 19:39 | 36.99611 | 77.03986 | 35108 ft | 519 kts | 90° |
| 2026-04-24 19:40 | 36.99845 | 77.13019 | 35095 ft | 520 kts | 90° |
| 2026-04-24 19:40 | 37.00071 | 77.22001 | 35094 ft | 520 kts | 90° |
| 2026-04-24 19:41 | 37.00293 | 77.31086 | 35102 ft | 518 kts | 90° |
| 2026-04-24 19:41 | 37.00505 | 77.40048 | 35096 ft | 519 kts | 90° |
| 2026-04-24 19:42 | 37.00712 | 77.49085 | 35105 ft | 520 kts | 90° |
| 2026-04-24 19:42 | 37.00912 | 77.58122 | 35094 ft | 519 kts | 90° |
| 2026-04-24 19:43 | 37.01107 | 77.67158 | 35079 ft | 519 kts | 90° |
| 2026-04-24 19:43 | 37.01293 | 77.76190 | 35074 ft | 519 kts | 90° |
| 2026-04-24 19:44 | 37.01473 | 77.85207 | 35067 ft | 517 kts | 90° |
| 2026-04-24 19:44 | 37.01640 | 77.94189 | 35094 ft | 515 kts | 90° |
| 2026-04-24 19:45 | 37.01806 | 78.03166 | 35052 ft | 516 kts | 90° |
| 2026-04-24 19:45 | 37.01970 | 78.12144 | 35045 ft | 516 kts | 90° |
| 2026-04-24 19:46 | 37.02119 | 78.21063 | 35055 ft | 516 kts | 90° |
| 2026-04-24 19:46 | 37.02262 | 78.30055 | 35040 ft | 517 kts | 90° |
| 2026-04-24 19:47 | 37.02400 | 78.39055 | 35005 ft | 518 kts | 91° |
| 2026-04-24 19:47 | 37.02532 | 78.48064 | 35001 ft | 518 kts | 91° |
| 2026-04-24 19:48 | 37.02657 | 78.57088 | 34979 ft | 519 kts | 91° |
| 2026-04-24 19:48 | 37.02832 | 78.70639 | 34962 ft | 520 kts | 91° |
| 2026-04-24 19:49 | 37.03042 | 78.88743 | 34953 ft | 520 kts | 91° |
| 2026-04-24 19:50 | 37.03223 | 79.06860 | 34928 ft | 521 kts | 91° |
| 2026-04-24 19:51 | 37.03342 | 79.20466 | 34901 ft | 521 kts | 91° |
| 2026-04-24 19:52 | 37.03446 | 79.34077 | 34889 ft | 521 kts | 91° |
| 2026-04-24 19:52 | 37.03497 | 79.41604 | 34875 ft | 521 kts | 91° |
| 2026-04-24 19:53 | 37.03551 | 79.50672 | 34877 ft | 521 kts | 92° |
| 2026-04-24 19:54 | 37.03620 | 79.64276 | 34876 ft | 521 kts | 92° |
| 2026-04-24 19:54 | 37.03658 | 79.73341 | 34869 ft | 521 kts | 92° |
| 2026-04-24 19:55 | 37.03685 | 79.80880 | 34857 ft | 521 kts | 91° |
| 2026-04-24 19:55 | 37.04615 | 79.91382 | 34859 ft | 524 kts | 78° |
| 2026-04-24 19:56 | 37.06538 | 80.00252 | 34858 ft | 525 kts | 75° |
| 2026-04-24 19:56 | 37.08521 | 80.09013 | 34844 ft | 526 kts | 75° |
| 2026-04-24 19:57 | 37.10473 | 80.17839 | 34842 ft | 526 kts | 76° |
| 2026-04-24 19:57 | 37.12390 | 80.26691 | 34836 ft | 526 kts | 76° |
| 2026-04-24 19:58 | 37.14294 | 80.35552 | 34831 ft | 527 kts | 76° |
| 2026-04-24 19:58 | 37.16193 | 80.44419 | 34827 ft | 527 kts | 76° |
| 2026-04-24 19:59 | 37.18087 | 80.53288 | 34824 ft | 527 kts | 76° |
| 2026-04-24 19:59 | 37.19977 | 80.62165 | 34826 ft | 527 kts | 76° |
| 2026-04-24 20:00 | 37.21858 | 80.71037 | 34832 ft | 527 kts | 76° |
| 2026-04-24 20:00 | 37.23734 | 80.79922 | 34824 ft | 527 kts | 76° |
| 2026-04-24 20:01 | 37.25602 | 80.88808 | 34824 ft | 527 kts | 76° |
| 2026-04-24 20:01 | 37.27454 | 80.97648 | 34822 ft | 527 kts | 76° |
| 2026-04-24 20:02 | 37.29312 | 81.06560 | 34825 ft | 528 kts | 76° |
| 2026-04-24 20:02 | 37.31167 | 81.15486 | 34826 ft | 528 kts | 76° |
| 2026-04-24 20:03 | 37.33016 | 81.24426 | 34825 ft | 529 kts | 76° |
| 2026-04-24 20:03 | 37.34860 | 81.33374 | 34825 ft | 529 kts | 76° |
| 2026-04-24 20:04 | 37.36698 | 81.42334 | 34821 ft | 529 kts | 76° |
| 2026-04-24 20:04 | 37.38528 | 81.51290 | 34823 ft | 529 kts | 76° |
| 2026-04-24 20:05 | 37.40351 | 81.60252 | 34822 ft | 529 kts | 76° |
| 2026-04-24 20:05 | 37.42167 | 81.69213 | 34822 ft | 528 kts | 76° |
| 2026-04-24 20:06 | 37.43976 | 81.78177 | 34827 ft | 528 kts | 76° |
| 2026-04-24 20:06 | 37.45773 | 81.87126 | 34832 ft | 527 kts | 76° |
| 2026-04-24 20:07 | 37.47263 | 81.94570 | 34830 ft | 527 kts | 76° |
| 2026-04-24 20:07 | 37.49335 | 82.04967 | 34834 ft | 527 kts | 76° |
| 2026-04-24 20:08 | 37.51109 | 82.13908 | 34837 ft | 526 kts | 76° |
| 2026-04-24 20:08 | 37.52874 | 82.22845 | 34842 ft | 525 kts | 76° |
| 2026-04-24 20:09 | 37.54632 | 82.31788 | 34840 ft | 525 kts | 76° |
| 2026-04-24 20:09 | 37.56381 | 82.40716 | 34841 ft | 524 kts | 76° |
| 2026-04-24 20:10 | 37.58121 | 82.49642 | 34838 ft | 524 kts | 76° |
| 2026-04-24 20:10 | 37.59853 | 82.58562 | 34845 ft | 523 kts | 76° |
| 2026-04-24 20:11 | 37.61575 | 82.67473 | 34842 ft | 522 kts | 76° |
| 2026-04-24 20:11 | 37.63276 | 82.76309 | 34839 ft | 522 kts | 76° |
| 2026-04-24 20:12 | 37.64982 | 82.85215 | 34844 ft | 522 kts | 76° |
| 2026-04-24 20:12 | 37.66681 | 82.94122 | 34849 ft | 521 kts | 76° |
| 2026-04-24 20:13 | 37.68372 | 83.03023 | 34847 ft | 521 kts | 76° |
| 2026-04-24 20:13 | 37.70053 | 83.11916 | 34848 ft | 521 kts | 76° |
| 2026-04-24 20:14 | 37.71730 | 83.20822 | 34858 ft | 521 kts | 76° |
| 2026-04-24 20:14 | 37.73403 | 83.29746 | 34860 ft | 522 kts | 76° |
| 2026-04-24 20:15 | 37.75069 | 83.38669 | 34858 ft | 522 kts | 76° |
| 2026-04-24 20:15 | 37.76730 | 83.47597 | 34859 ft | 522 kts | 76° |
| 2026-04-24 20:16 | 37.78388 | 83.56535 | 34859 ft | 522 kts | 76° |
| 2026-04-24 20:16 | 37.80038 | 83.65475 | 34868 ft | 522 kts | 76° |
| 2026-04-24 20:17 | 37.81681 | 83.74418 | 34865 ft | 522 kts | 76° |
| 2026-04-24 20:17 | 37.84123 | 83.87790 | 34870 ft | 522 kts | 76° |
| 2026-04-24 20:18 | 37.85749 | 83.96744 | 34868 ft | 522 kts | 76° |
| 2026-04-24 20:18 | 37.87368 | 84.05699 | 34870 ft | 522 kts | 76° |
| 2026-04-24 20:19 | 37.88980 | 84.14659 | 34870 ft | 522 kts | 76° |
| 2026-04-24 20:19 | 37.90585 | 84.23623 | 34867 ft | 522 kts | 76° |
| 2026-04-24 20:20 | 37.92181 | 84.32578 | 34876 ft | 522 kts | 76° |
| 2026-04-24 20:20 | 37.93774 | 84.41553 | 34880 ft | 522 kts | 76° |
| 2026-04-24 20:21 | 37.95358 | 84.50524 | 34881 ft | 522 kts | 76° |
| 2026-04-24 20:21 | 37.96937 | 84.59509 | 34881 ft | 522 kts | 76° |
| 2026-04-24 20:22 | 37.98509 | 84.68498 | 34873 ft | 522 kts | 76° |
| 2026-04-24 20:22 | 38.00064 | 84.77426 | 34889 ft | 522 kts | 76° |
| 2026-04-24 20:23 | 38.01767 | 84.86361 | 34894 ft | 521 kts | 71° |
| 2026-04-24 20:23 | 38.04464 | 84.94848 | 34900 ft | 518 kts | 63° |
| 2026-04-24 20:24 | 38.07459 | 85.03183 | 34884 ft | 519 kts | 63° |
| 2026-04-24 20:24 | 38.10404 | 85.11541 | 34885 ft | 519 kts | 64° |
| 2026-04-24 20:25 | 38.13312 | 85.19940 | 34887 ft | 519 kts | 64° |
| 2026-04-24 20:25 | 38.16211 | 85.28346 | 34889 ft | 519 kts | 64° |
| 2026-04-24 20:26 | 38.19109 | 85.36753 | 34888 ft | 519 kts | 64° |
| 2026-04-24 20:26 | 38.21664 | 85.45341 | 34892 ft | 521 kts | 72° |
| 2026-04-24 20:27 | 38.23067 | 85.54394 | 34894 ft | 522 kts | 80° |
| 2026-04-24 20:27 | 38.24119 | 85.63534 | 34887 ft | 522 kts | 81° |
| 2026-04-24 20:28 | 38.25176 | 85.72618 | 34884 ft | 522 kts | 80° |
| 2026-04-24 20:28 | 38.26271 | 85.81749 | 34884 ft | 522 kts | 80° |
| 2026-04-24 20:29 | 38.27372 | 85.90865 | 34885 ft | 521 kts | 80° |
| 2026-04-24 20:29 | 38.28468 | 85.99990 | 34882 ft | 521 kts | 80° |
| 2026-04-24 20:30 | 38.29551 | 86.09102 | 34882 ft | 521 kts | 80° |
| 2026-04-24 20:30 | 38.30626 | 86.18210 | 34882 ft | 520 kts | 80° |
| 2026-04-24 20:31 | 38.31692 | 86.27314 | 34880 ft | 520 kts | 80° |
| 2026-04-24 20:31 | 38.32751 | 86.36417 | 34880 ft | 520 kts | 80° |
| 2026-04-24 20:32 | 38.33802 | 86.45518 | 34877 ft | 519 kts | 80° |
| 2026-04-24 20:32 | 38.34847 | 86.54621 | 34874 ft | 519 kts | 80° |
| 2026-04-24 20:33 | 38.35884 | 86.63727 | 34879 ft | 519 kts | 80° |
| 2026-04-24 20:33 | 38.36915 | 86.72836 | 34880 ft | 519 kts | 80° |
| 2026-04-24 20:34 | 38.37936 | 86.81936 | 34879 ft | 519 kts | 80° |
| 2026-04-24 20:34 | 38.38952 | 86.91046 | 34879 ft | 519 kts | 80° |
| 2026-04-24 20:35 | 38.39960 | 87.00154 | 34879 ft | 519 kts | 81° |
| 2026-04-24 20:35 | 38.40960 | 87.09251 | 34883 ft | 518 kts | 81° |
| 2026-04-24 20:36 | 38.41954 | 87.18357 | 34882 ft | 518 kts | 81° |
| 2026-04-24 20:36 | 38.42940 | 87.27463 | 34890 ft | 518 kts | 81° |
| 2026-04-24 20:37 | 38.43919 | 87.36576 | 34888 ft | 519 kts | 81° |
| 2026-04-24 20:37 | 38.44891 | 87.45687 | 34890 ft | 519 kts | 81° |
| 2026-04-24 20:38 | 38.45851 | 87.54751 | 34896 ft | 519 kts | 81° |
| 2026-04-24 20:38 | 38.46810 | 87.63881 | 34904 ft | 519 kts | 81° |
| 2026-04-24 20:39 | 38.47764 | 87.73027 | 34909 ft | 520 kts | 81° |
| 2026-04-24 20:39 | 38.48711 | 87.82176 | 34920 ft | 521 kts | 81° |
| 2026-04-24 20:40 | 38.49653 | 87.91352 | 34927 ft | 521 kts | 82° |
| 2026-04-24 20:40 | 38.50437 | 87.99045 | 34930 ft | 522 kts | 82° |
| 2026-04-24 20:41 | 38.51366 | 88.08224 | 34935 ft | 521 kts | 82° |
| 2026-04-24 20:41 | 38.52287 | 88.17410 | 34953 ft | 522 kts | 82° |
| 2026-04-24 20:42 | 38.53204 | 88.26608 | 34953 ft | 523 kts | 82° |
| 2026-04-24 20:42 | 38.54114 | 88.35839 | 34972 ft | 524 kts | 82° |
| 2026-04-24 20:43 | 38.55021 | 88.45088 | 34969 ft | 525 kts | 83° |
| 2026-04-24 20:43 | 38.55915 | 88.54295 | 34986 ft | 526 kts | 83° |
| 2026-04-24 20:44 | 38.56810 | 88.63573 | 34987 ft | 527 kts | 83° |
| 2026-04-24 20:44 | 38.57754 | 88.72864 | 34989 ft | 527 kts | 81° |
| 2026-04-24 20:45 | 38.59052 | 88.82106 | 34989 ft | 528 kts | 79° |
| 2026-04-24 20:45 | 38.60422 | 88.91325 | 34993 ft | 528 kts | 79° |
| 2026-04-24 20:46 | 38.61763 | 89.00562 | 35000 ft | 529 kts | 80° |
| 2026-04-24 20:46 | 38.63077 | 89.09831 | 35006 ft | 530 kts | 80° |
| 2026-04-24 20:47 | 38.64377 | 89.19116 | 34988 ft | 531 kts | 80° |
| 2026-04-24 20:47 | 38.65674 | 89.28416 | 35003 ft | 531 kts | 80° |
| 2026-04-24 20:48 | 38.66967 | 89.37728 | 34998 ft | 532 kts | 80° |
| 2026-04-24 20:48 | 38.68247 | 89.47006 | 34998 ft | 533 kts | 80° |
| 2026-04-24 20:49 | 38.69531 | 89.56360 | 34985 ft | 534 kts | 81° |
| 2026-04-24 20:49 | 38.70809 | 89.65733 | 34983 ft | 534 kts | 81° |
| 2026-04-24 20:50 | 38.72079 | 89.75114 | 34981 ft | 535 kts | 81° |
| 2026-04-24 20:50 | 38.73342 | 89.84497 | 34979 ft | 535 kts | 81° |
| 2026-04-24 20:51 | 38.74598 | 89.93882 | 34975 ft | 535 kts | 81° |
| 2026-04-24 20:51 | 38.75846 | 90.03278 | 34982 ft | 535 kts | 81° |
| 2026-04-24 20:52 | 38.77088 | 90.12677 | 34984 ft | 535 kts | 81° |
| 2026-04-24 20:52 | 38.78322 | 90.22080 | 34985 ft | 535 kts | 81° |
| 2026-04-24 20:53 | 38.79549 | 90.31484 | 34988 ft | 535 kts | 81° |
| 2026-04-24 20:53 | 38.80768 | 90.40909 | 34991 ft | 536 kts | 81° |
| 2026-04-24 20:54 | 38.81977 | 90.50336 | 34997 ft | 536 kts | 81° |
| 2026-04-24 20:54 | 38.83171 | 90.59710 | 34996 ft | 537 kts | 81° |
| 2026-04-24 20:55 | 38.84368 | 90.69160 | 34992 ft | 537 kts | 81° |
| 2026-04-24 20:55 | 38.85558 | 90.78616 | 34987 ft | 537 kts | 81° |
| 2026-04-24 20:56 | 38.86740 | 90.88070 | 34971 ft | 537 kts | 81° |
| 2026-04-24 20:56 | 38.87928 | 90.97524 | 34970 ft | 536 kts | 80° |
| 2026-04-24 20:57 | 38.89382 | 91.06910 | 34960 ft | 536 kts | 78° |
| 2026-04-24 20:57 | 38.90940 | 91.16270 | 34957 ft | 536 kts | 78° |
| 2026-04-24 20:58 | 38.92454 | 91.25647 | 34951 ft | 536 kts | 78° |
| 2026-04-24 20:58 | 38.93923 | 91.35030 | 34951 ft | 536 kts | 78° |
| 2026-04-24 20:59 | 38.95374 | 91.44409 | 34947 ft | 536 kts | 78° |
| 2026-04-24 20:59 | 38.96824 | 91.53810 | 34950 ft | 536 kts | 78° |
| 2026-04-24 21:00 | 38.98260 | 91.63154 | 34942 ft | 536 kts | 78° |
| 2026-04-24 21:00 | 38.99698 | 91.72557 | 34951 ft | 537 kts | 78° |
| 2026-04-24 21:01 | 39.01131 | 91.81988 | 34937 ft | 538 kts | 78° |
| 2026-04-24 21:01 | 39.02558 | 91.91432 | 34934 ft | 538 kts | 78° |
| 2026-04-24 21:02 | 39.03975 | 92.00867 | 34940 ft | 538 kts | 78° |
| 2026-04-24 21:02 | 39.05387 | 92.10322 | 34939 ft | 538 kts | 78° |
| 2026-04-24 21:03 | 39.06794 | 92.19789 | 34919 ft | 539 kts | 78° |
| 2026-04-24 21:03 | 39.08637 | 92.29114 | 34920 ft | 536 kts | 68° |
| 2026-04-24 21:04 | 39.11631 | 92.37863 | 34925 ft | 532 kts | 57° |
| 2026-04-24 21:04 | 39.15288 | 92.46070 | 34924 ft | 532 kts | 56° |
| 2026-04-24 21:05 | 39.18998 | 92.54322 | 34921 ft | 532 kts | 57° |
| 2026-04-24 21:05 | 39.22669 | 92.62608 | 34927 ft | 532 kts | 57° |
| 2026-04-24 21:06 | 39.26310 | 92.70924 | 34915 ft | 532 kts | 57° |
| 2026-04-24 21:06 | 39.29937 | 92.79247 | 34921 ft | 531 kts | 57° |
| 2026-04-24 21:07 | 39.33551 | 92.87557 | 34918 ft | 530 kts | 57° |
| 2026-04-24 21:07 | 39.37151 | 92.95847 | 34925 ft | 529 kts | 57° |
| 2026-04-24 21:08 | 39.40743 | 93.04139 | 34921 ft | 528 kts | 57° |
| 2026-04-24 21:08 | 39.44321 | 93.12420 | 34919 ft | 527 kts | 57° |
| 2026-04-24 21:09 | 39.47885 | 93.20693 | 34916 ft | 526 kts | 57° |
| 2026-04-24 21:09 | 39.51440 | 93.28966 | 34913 ft | 525 kts | 57° |
| 2026-04-24 21:10 | 39.54986 | 93.37241 | 34905 ft | 525 kts | 57° |
| 2026-04-24 21:10 | 39.58500 | 93.45464 | 34898 ft | 525 kts | 57° |
| 2026-04-24 21:11 | 39.62032 | 93.53750 | 34894 ft | 524 kts | 57° |
| 2026-04-24 21:11 | 39.65550 | 93.62024 | 34887 ft | 524 kts | 58° |
| 2026-04-24 21:12 | 39.68468 | 93.68907 | 34873 ft | 523 kts | 58° |
| 2026-04-24 21:12 | 39.72567 | 93.78598 | 34867 ft | 523 kts | 58° |
| 2026-04-24 21:13 | 39.76060 | 93.86880 | 34874 ft | 523 kts | 58° |
| 2026-04-24 21:13 | 39.79557 | 93.95196 | 34869 ft | 524 kts | 58° |
| 2026-04-24 21:14 | 39.83049 | 94.03524 | 34876 ft | 524 kts | 58° |
| 2026-04-24 21:14 | 39.86528 | 94.11842 | 34875 ft | 524 kts | 58° |
| 2026-04-24 21:15 | 39.90005 | 94.20177 | 34877 ft | 524 kts | 58° |
| 2026-04-24 21:15 | 39.93475 | 94.28520 | 34871 ft | 524 kts | 58° |
| 2026-04-24 21:16 | 39.96914 | 94.36810 | 34874 ft | 523 kts | 58° |
| 2026-04-24 21:16 | 40.00370 | 94.45164 | 34871 ft | 523 kts | 58° |
| 2026-04-24 21:17 | 40.03815 | 94.53513 | 34876 ft | 522 kts | 58° |
| 2026-04-24 21:17 | 40.06693 | 94.60509 | 34882 ft | 522 kts | 58° |
| 2026-04-24 21:18 | 40.10680 | 94.70227 | 34874 ft | 522 kts | 58° |
| 2026-04-24 21:18 | 40.14129 | 94.78543 | 34864 ft | 514 kts | 49° |
| 2026-04-24 21:19 | 40.16554 | 94.81870 | 34875 ft | 500 kts | 31° |
| 2026-04-24 21:19 | 40.19487 | 94.84190 | 34885 ft | 490 kts | 18° |
| 2026-04-24 21:19 | 40.22680 | 94.85649 | 34881 ft | 483 kts | 5° |
| 2026-04-24 21:19 | 40.25978 | 94.86159 | 34892 ft | 476 kts | 358° |
| 2026-04-24 21:20 | 40.35964 | 94.87638 | 34883 ft | 487 kts | 3° |
| 2026-04-24 21:21 | 40.42555 | 94.89095 | 34862 ft | 478 kts | 4° |
| 2026-04-24 21:21 | 40.49095 | 94.90546 | 34872 ft | 476 kts | 3° |
| 2026-04-24 21:22 | 40.55670 | 94.91947 | 34875 ft | 476 kts | 3° |
| 2026-04-24 21:22 | 40.62169 | 94.93311 | 34874 ft | 476 kts | 3° |
| 2026-04-24 21:23 | 40.68710 | 94.94683 | 34872 ft | 476 kts | 3° |
| 2026-04-24 21:23 | 40.75258 | 94.96063 | 34878 ft | 476 kts | 3° |
| 2026-04-24 21:24 | 40.81799 | 94.97446 | 34882 ft | 476 kts | 3° |
| 2026-04-24 21:24 | 40.88337 | 94.98832 | 34882 ft | 476 kts | 3° |
| 2026-04-24 21:25 | 40.94873 | 95.00219 | 34892 ft | 476 kts | 3° |
| 2026-04-24 21:25 | 41.01406 | 95.01608 | 34906 ft | 476 kts | 3° |
| 2026-04-24 21:26 | 41.07952 | 95.03003 | 34911 ft | 476 kts | 3° |
| 2026-04-24 21:26 | 41.14509 | 95.04403 | 34918 ft | 477 kts | 3° |
| 2026-04-24 21:27 | 41.21073 | 95.05807 | 34925 ft | 478 kts | 3° |
| 2026-04-24 21:27 | 41.27618 | 95.07210 | 34934 ft | 480 kts | 3° |
| 2026-04-24 21:28 | 41.34213 | 95.08627 | 34942 ft | 481 kts | 3° |
| 2026-04-24 21:28 | 41.40831 | 95.10051 | 34938 ft | 482 kts | 3° |
| 2026-04-24 21:29 | 41.47452 | 95.11480 | 34938 ft | 482 kts | 3° |
| 2026-04-24 21:29 | 41.54087 | 95.12915 | 34946 ft | 483 kts | 3° |
| 2026-04-24 21:30 | 41.59646 | 95.14119 | 34937 ft | 483 kts | 3° |
| 2026-04-24 21:30 | 41.66280 | 95.15558 | 34945 ft | 483 kts | 3° |
| 2026-04-24 21:31 | 41.72914 | 95.17001 | 34943 ft | 483 kts | 3° |
| 2026-04-24 21:31 | 41.79436 | 95.18953 | 34934 ft | 494 kts | 19° |
| 2026-04-24 21:31 | 41.82360 | 95.21467 | 34941 ft | 508 kts | 37° |
| 2026-04-24 21:32 | 41.84667 | 95.25116 | 34947 ft | 521 kts | 56° |
| 2026-04-24 21:32 | 41.86157 | 95.29575 | 34956 ft | 529 kts | 72° |
| 2026-04-24 21:32 | 41.86682 | 95.34458 | 34951 ft | 531 kts | 88° |
| 2026-04-24 21:33 | 41.86654 | 95.44384 | 34969 ft | 534 kts | 90° |
| 2026-04-24 21:33 | 41.86608 | 95.54376 | 34973 ft | 537 kts | 89° |
| 2026-04-24 21:34 | 41.86671 | 95.64405 | 34977 ft | 537 kts | 88° |
| 2026-04-24 21:34 | 41.86774 | 95.74424 | 34986 ft | 537 kts | 88° |
| 2026-04-24 21:35 | 41.86864 | 95.84432 | 34989 ft | 536 kts | 88° |
| 2026-04-24 21:35 | 41.86938 | 95.94423 | 34987 ft | 535 kts | 88° |
| 2026-04-24 21:36 | 41.86999 | 96.04321 | 34999 ft | 534 kts | 88° |
| 2026-04-24 21:36 | 41.87054 | 96.14270 | 35002 ft | 533 kts | 88° |
| 2026-04-24 21:37 | 41.87101 | 96.24201 | 34999 ft | 532 kts | 88° |
| 2026-04-24 21:37 | 41.87222 | 96.34148 | 34994 ft | 532 kts | 87° |
| 2026-04-24 21:38 | 41.87408 | 96.44072 | 34997 ft | 532 kts | 87° |
| 2026-04-24 21:38 | 41.87583 | 96.54003 | 34993 ft | 533 kts | 87° |
| 2026-04-24 21:39 | 41.87734 | 96.63952 | 34989 ft | 533 kts | 87° |
| 2026-04-24 21:39 | 41.87869 | 96.73904 | 34984 ft | 533 kts | 87° |
| 2026-04-24 21:40 | 41.87995 | 96.83866 | 34979 ft | 534 kts | 87° |
| 2026-04-24 21:40 | 41.88114 | 96.93827 | 34970 ft | 534 kts | 87° |
| 2026-04-24 21:41 | 41.88225 | 97.03781 | 34964 ft | 534 kts | 87° |
| 2026-04-24 21:41 | 41.88328 | 97.13752 | 34960 ft | 534 kts | 87° |
| 2026-04-24 21:42 | 41.88422 | 97.23714 | 34968 ft | 534 kts | 87° |
| 2026-04-24 21:42 | 41.88507 | 97.33689 | 34960 ft | 534 kts | 87° |
| 2026-04-24 21:43 | 41.88583 | 97.43657 | 34942 ft | 534 kts | 87° |
| 2026-04-24 21:43 | 41.88651 | 97.53556 | 34956 ft | 534 kts | 87° |
| 2026-04-24 21:44 | 41.88710 | 97.63529 | 34953 ft | 534 kts | 87° |
| 2026-04-24 21:44 | 41.88761 | 97.73512 | 34934 ft | 535 kts | 87° |
| 2026-04-24 21:45 | 41.88803 | 97.83497 | 34935 ft | 535 kts | 87° |
| 2026-04-24 21:45 | 41.88837 | 97.93494 | 34930 ft | 536 kts | 87° |
| 2026-04-24 21:46 | 41.88862 | 98.03426 | 34924 ft | 536 kts | 87° |
| 2026-04-24 21:46 | 41.88878 | 98.13484 | 34927 ft | 536 kts | 87° |
| 2026-04-24 21:47 | 41.88885 | 98.23417 | 34922 ft | 536 kts | 87° |
| 2026-04-24 21:47 | 41.88884 | 98.33419 | 34916 ft | 536 kts | 87° |
| 2026-04-24 21:48 | 41.88874 | 98.43425 | 34908 ft | 536 kts | 87° |
| 2026-04-24 21:48 | 41.88856 | 98.53430 | 34909 ft | 536 kts | 87° |
| 2026-04-24 21:49 | 41.88829 | 98.63436 | 34898 ft | 536 kts | 87° |
| 2026-04-24 21:49 | 41.88793 | 98.73425 | 34898 ft | 536 kts | 87° |
| 2026-04-24 21:50 | 41.88748 | 98.83422 | 34895 ft | 536 kts | 87° |
| 2026-04-24 21:50 | 41.88695 | 98.93434 | 34894 ft | 536 kts | 87° |
| 2026-04-24 21:51 | 41.88634 | 99.03421 | 34885 ft | 535 kts | 87° |
| 2026-04-24 21:51 | 41.88563 | 99.13346 | 34886 ft | 535 kts | 87° |
| 2026-04-24 21:52 | 41.88485 | 99.23334 | 34879 ft | 535 kts | 87° |
| 2026-04-24 21:52 | 41.88397 | 99.33324 | 34878 ft | 535 kts | 87° |
| 2026-04-24 21:53 | 41.88301 | 99.43291 | 34879 ft | 534 kts | 87° |
| 2026-04-24 21:53 | 41.88195 | 99.53266 | 34873 ft | 534 kts | 87° |
| 2026-04-24 21:54 | 41.88082 | 99.63240 | 34869 ft | 534 kts | 87° |
| 2026-04-24 21:54 | 41.87961 | 99.73187 | 34870 ft | 533 kts | 87° |
| 2026-04-24 21:55 | 41.87831 | 99.83126 | 34863 ft | 533 kts | 88° |
| 2026-04-24 21:55 | 41.87692 | 99.93065 | 34867 ft | 532 kts | 88° |
| 2026-04-24 21:56 | 41.87545 | 100.02990 | 34863 ft | 532 kts | 88° |
| 2026-04-24 21:56 | 41.87389 | 100.12906 | 34864 ft | 532 kts | 88° |
| 2026-04-24 21:57 | 41.87226 | 100.22763 | 34860 ft | 532 kts | 88° |
| 2026-04-24 21:57 | 41.87054 | 100.32675 | 34853 ft | 532 kts | 88° |
| 2026-04-24 21:58 | 41.86872 | 100.42617 | 34855 ft | 533 kts | 88° |
| 2026-04-24 21:58 | 41.86682 | 100.52559 | 34855 ft | 534 kts | 88° |
| 2026-04-24 21:59 | 41.86483 | 100.62511 | 34855 ft | 534 kts | 88° |
| 2026-04-24 21:59 | 41.86275 | 100.72497 | 34854 ft | 535 kts | 88° |
| 2026-04-24 22:00 | 41.86058 | 100.82469 | 34851 ft | 535 kts | 88° |
| 2026-04-24 22:00 | 41.85833 | 100.92461 | 34851 ft | 536 kts | 88° |
| 2026-04-24 22:01 | 41.85598 | 101.02447 | 34850 ft | 536 kts | 88° |
| 2026-04-24 22:01 | 41.85358 | 101.12357 | 34845 ft | 535 kts | 88° |
| 2026-04-24 22:02 | 41.84646 | 101.22329 | 34860 ft | 540 kts | 98° |
| 2026-04-24 22:02 | 41.82652 | 101.32058 | 34869 ft | 544 kts | 108° |
| 2026-04-24 22:03 | 41.79987 | 101.41553 | 34855 ft | 544 kts | 109° |
| 2026-04-24 22:03 | 41.77312 | 101.51023 | 34860 ft | 543 kts | 108° |
| 2026-04-24 22:04 | 41.74675 | 101.60515 | 34857 ft | 543 kts | 108° |
| 2026-04-24 22:04 | 41.72054 | 101.70005 | 34866 ft | 543 kts | 108° |
| 2026-04-24 22:05 | 41.69429 | 101.79479 | 34862 ft | 543 kts | 108° |
| 2026-04-24 22:05 | 41.66790 | 101.88948 | 34864 ft | 543 kts | 108° |
| 2026-04-24 22:06 | 41.64145 | 101.98399 | 34849 ft | 543 kts | 108° |
| 2026-04-24 22:06 | 41.61492 | 102.07842 | 34859 ft | 542 kts | 108° |
| 2026-04-24 22:07 | 41.58834 | 102.17269 | 34850 ft | 542 kts | 108° |
| 2026-04-24 22:07 | 41.56169 | 102.26686 | 34861 ft | 542 kts | 108° |
| 2026-04-24 22:08 | 41.53497 | 102.36092 | 34861 ft | 542 kts | 108° |
| 2026-04-24 22:08 | 41.50836 | 102.45426 | 34864 ft | 541 kts | 108° |
| 2026-04-24 22:09 | 41.48153 | 102.54805 | 34861 ft | 541 kts | 108° |
| 2026-04-24 22:09 | 41.45468 | 102.64160 | 34869 ft | 540 kts | 108° |
| 2026-04-24 22:10 | 41.42776 | 102.73507 | 34861 ft | 540 kts | 108° |
| 2026-04-24 22:10 | 41.40096 | 102.82845 | 34872 ft | 539 kts | 108° |
| 2026-04-24 22:11 | 41.37415 | 102.92166 | 34856 ft | 538 kts | 108° |
| 2026-04-24 22:11 | 41.34739 | 103.01462 | 34875 ft | 537 kts | 107° |
| 2026-04-24 22:12 | 41.32155 | 103.10786 | 34874 ft | 536 kts | 107° |
| 2026-04-24 22:12 | 41.29606 | 103.20099 | 34876 ft | 535 kts | 107° |
| 2026-04-24 22:13 | 41.27041 | 103.29391 | 34865 ft | 534 kts | 107° |
| 2026-04-24 22:13 | 41.24464 | 103.38644 | 34880 ft | 533 kts | 107° |
| 2026-04-24 22:14 | 41.21883 | 103.47868 | 34866 ft | 532 kts | 107° |
| 2026-04-24 22:14 | 41.19301 | 103.57064 | 34890 ft | 531 kts | 107° |
| 2026-04-24 22:15 | 41.16718 | 103.66235 | 34874 ft | 530 kts | 107° |
| 2026-04-24 22:15 | 41.14146 | 103.75336 | 34886 ft | 530 kts | 107° |
| 2026-04-24 22:16 | 41.11554 | 103.84475 | 34885 ft | 529 kts | 107° |
| 2026-04-24 22:16 | 41.08952 | 103.93615 | 34896 ft | 529 kts | 107° |
| 2026-04-24 22:17 | 41.06346 | 104.02738 | 34886 ft | 529 kts | 107° |
| 2026-04-24 22:17 | 41.03730 | 104.11862 | 34895 ft | 529 kts | 107° |
| 2026-04-24 22:18 | 41.01112 | 104.20966 | 34884 ft | 529 kts | 107° |
| 2026-04-24 22:18 | 40.98485 | 104.30070 | 34899 ft | 529 kts | 107° |
| 2026-04-24 22:19 | 40.96125 | 104.39274 | 34890 ft | 527 kts | 103° |
| 2026-04-24 22:19 | 40.93926 | 104.48524 | 34904 ft | 527 kts | 103° |
| 2026-04-24 22:20 | 40.92097 | 104.56205 | 34905 ft | 527 kts | 103° |
| 2026-04-24 22:20 | 40.89489 | 104.66984 | 34918 ft | 527 kts | 103° |
| 2026-04-24 22:21 | 40.87615 | 104.74650 | 34913 ft | 527 kts | 104° |
| 2026-04-24 22:21 | 40.85356 | 104.83854 | 34921 ft | 527 kts | 104° |
| 2026-04-24 22:22 | 40.83093 | 104.93044 | 34923 ft | 526 kts | 104° |
| 2026-04-24 22:22 | 40.80827 | 105.02215 | 34934 ft | 526 kts | 104° |
| 2026-04-24 22:23 | 40.78554 | 105.11381 | 34926 ft | 525 kts | 104° |
| 2026-04-24 22:23 | 40.76276 | 105.20531 | 34935 ft | 525 kts | 104° |
| 2026-04-24 22:24 | 40.73991 | 105.29674 | 34937 ft | 525 kts | 104° |
| 2026-04-24 22:24 | 40.71700 | 105.38806 | 34944 ft | 525 kts | 104° |
| 2026-04-24 22:25 | 40.69403 | 105.47927 | 34937 ft | 525 kts | 104° |
| 2026-04-24 22:25 | 40.67108 | 105.57002 | 34942 ft | 524 kts | 104° |
| 2026-04-24 22:26 | 40.64798 | 105.66106 | 34941 ft | 524 kts | 104° |
| 2026-04-24 22:26 | 40.62482 | 105.75197 | 34945 ft | 523 kts | 104° |
| 2026-04-24 22:27 | 40.60160 | 105.84279 | 34947 ft | 523 kts | 104° |
| 2026-04-24 22:27 | 40.57832 | 105.93347 | 34951 ft | 523 kts | 104° |
| 2026-04-24 22:28 | 40.55500 | 106.02401 | 34939 ft | 522 kts | 105° |
| 2026-04-24 22:28 | 40.53164 | 106.11433 | 34953 ft | 521 kts | 105° |
| 2026-04-24 22:29 | 40.49651 | 106.24955 | 34936 ft | 521 kts | 105° |
| 2026-04-24 22:29 | 40.47306 | 106.33944 | 34950 ft | 520 kts | 105° |
| 2026-04-24 22:30 | 40.44958 | 106.42912 | 34944 ft | 520 kts | 105° |
| 2026-04-24 22:30 | 40.42599 | 106.51884 | 34952 ft | 519 kts | 105° |
| 2026-04-24 22:31 | 40.40236 | 106.60843 | 34952 ft | 519 kts | 105° |
| 2026-04-24 22:31 | 40.37871 | 106.69775 | 34945 ft | 518 kts | 105° |
| 2026-04-24 22:32 | 40.35518 | 106.78631 | 34945 ft | 517 kts | 105° |
| 2026-04-24 22:32 | 40.33151 | 106.87514 | 34951 ft | 516 kts | 105° |
| 2026-04-24 22:33 | 40.31588 | 106.96571 | 34947 ft | 505 kts | 90° |
| 2026-04-24 22:33 | 40.31823 | 107.05654 | 34948 ft | 494 kts | 75° |
| 2026-04-24 22:34 | 40.32998 | 107.14504 | 34952 ft | 493 kts | 75° |
| 2026-04-24 22:34 | 40.34175 | 107.23371 | 34951 ft | 494 kts | 75° |
| 2026-04-24 22:35 | 40.35296 | 107.32263 | 34943 ft | 494 kts | 76° |
| 2026-04-24 22:35 | 40.36387 | 107.41164 | 34953 ft | 494 kts | 76° |
| 2026-04-24 22:36 | 40.37471 | 107.50066 | 34949 ft | 494 kts | 76° |
| 2026-04-24 22:36 | 40.38544 | 107.58912 | 34952 ft | 494 kts | 76° |
| 2026-04-24 22:37 | 40.39617 | 107.67810 | 34943 ft | 494 kts | 76° |
| 2026-04-24 22:37 | 40.40684 | 107.76707 | 34952 ft | 494 kts | 77° |
| 2026-04-24 22:38 | 40.41743 | 107.85612 | 34942 ft | 494 kts | 77° |
| 2026-04-24 22:38 | 40.42798 | 107.94519 | 34944 ft | 494 kts | 77° |
| 2026-04-24 22:39 | 40.43839 | 108.03428 | 34944 ft | 494 kts | 77° |
| 2026-04-24 22:39 | 40.44866 | 108.12347 | 34948 ft | 494 kts | 77° |
| 2026-04-24 22:40 | 40.45885 | 108.21261 | 34945 ft | 494 kts | 77° |
| 2026-04-24 22:40 | 40.46900 | 108.30182 | 34955 ft | 494 kts | 77° |
| 2026-04-24 22:41 | 40.47909 | 108.39115 | 34938 ft | 495 kts | 77° |
| 2026-04-24 22:41 | 40.48410 | 108.43580 | 34629 ft | 495 kts | 77° |
| 2026-04-24 22:41 | 40.48906 | 108.48040 | 34726 ft | 492 kts | 73° |
| 2026-04-24 22:42 | 40.49894 | 108.56918 | 34883 ft | 490 kts | 73° |
| 2026-04-24 22:42 | 40.50879 | 108.65787 | 34941 ft | 492 kts | 73° |
| 2026-04-24 22:43 | 40.51861 | 108.74705 | 34960 ft | 495 kts | 74° |
| 2026-04-24 22:43 | 40.52833 | 108.83619 | 34956 ft | 497 kts | 74° |
| 2026-04-24 22:44 | 40.53810 | 108.92672 | 34962 ft | 498 kts | 74° |
| 2026-04-24 22:44 | 40.54770 | 109.01624 | 34957 ft | 498 kts | 74° |
| 2026-04-24 22:45 | 40.55729 | 109.10631 | 34961 ft | 497 kts | 74° |
| 2026-04-24 22:45 | 40.56685 | 109.19682 | 34961 ft | 496 kts | 74° |
| 2026-04-24 22:46 | 40.57622 | 109.28611 | 34967 ft | 496 kts | 75° |
| 2026-04-24 22:46 | 40.58557 | 109.37589 | 34970 ft | 495 kts | 75° |
| 2026-04-24 22:47 | 40.59486 | 109.46574 | 34976 ft | 495 kts | 75° |
| 2026-04-24 22:47 | 40.60407 | 109.55558 | 34983 ft | 495 kts | 75° |
| 2026-04-24 22:48 | 40.61322 | 109.64555 | 34986 ft | 496 kts | 75° |
| 2026-04-24 22:48 | 40.62230 | 109.73554 | 34996 ft | 496 kts | 75° |
| 2026-04-24 22:49 | 40.63132 | 109.82560 | 35000 ft | 497 kts | 75° |
| 2026-04-24 22:49 | 40.64028 | 109.91576 | 35005 ft | 497 kts | 75° |
| 2026-04-24 22:50 | 40.64763 | 110.00646 | 35010 ft | 503 kts | 82° |
| 2026-04-24 22:50 | 40.64720 | 110.09906 | 35011 ft | 506 kts | 84° |
| 2026-04-24 22:51 | 40.64600 | 110.19173 | 34992 ft | 506 kts | 84° |
| 2026-04-24 22:51 | 40.64526 | 110.28442 | 35013 ft | 506 kts | 84° |
| 2026-04-24 22:52 | 40.64466 | 110.37712 | 35011 ft | 506 kts | 84° |
| 2026-04-24 22:52 | 40.64395 | 110.46973 | 34995 ft | 506 kts | 84° |
| 2026-04-24 22:53 | 40.64315 | 110.56218 | 34993 ft | 505 kts | 85° |
| 2026-04-24 22:53 | 40.64225 | 110.65451 | 34993 ft | 503 kts | 85° |
| 2026-04-24 22:54 | 40.64134 | 110.74642 | 35010 ft | 502 kts | 85° |
| 2026-04-24 22:54 | 40.64036 | 110.83841 | 35009 ft | 502 kts | 85° |
| 2026-04-24 22:55 | 40.63930 | 110.93052 | 35017 ft | 503 kts | 85° |
| 2026-04-24 22:55 | 40.63816 | 111.02266 | 35015 ft | 504 kts | 85° |
| 2026-04-24 22:56 | 40.63695 | 111.11498 | 35016 ft | 505 kts | 85° |
| 2026-04-24 22:56 | 40.63566 | 111.20741 | 35009 ft | 505 kts | 85° |
| 2026-04-24 22:57 | 40.63430 | 111.29984 | 35017 ft | 505 kts | 86° |
| 2026-04-24 22:57 | 40.63289 | 111.39164 | 35019 ft | 505 kts | 86° |
| 2026-04-24 22:58 | 40.63140 | 111.48403 | 35021 ft | 505 kts | 86° |
| 2026-04-24 22:58 | 40.62984 | 111.57629 | 35022 ft | 504 kts | 86° |
| 2026-04-24 22:59 | 40.62821 | 111.66856 | 35024 ft | 504 kts | 86° |
| 2026-04-24 23:00 | 40.62563 | 111.80677 | 35030 ft | 503 kts | 86° |
| 2026-04-24 23:00 | 40.62385 | 111.89891 | 35032 ft | 503 kts | 86° |
| 2026-04-24 23:01 | 40.62280 | 111.99076 | 35031 ft | 503 kts | 87° |
| 2026-04-24 23:01 | 40.61992 | 112.08297 | 35030 ft | 503 kts | 87° |
| 2026-04-24 23:02 | 40.61775 | 112.17499 | 35032 ft | 503 kts | 86° |
| 2026-04-24 23:02 | 40.61573 | 112.26719 | 35038 ft | 504 kts | 86° |
| 2026-04-24 23:03 | 40.61350 | 112.35952 | 35023 ft | 504 kts | 86° |
| 2026-04-24 23:03 | 40.61117 | 112.45187 | 35030 ft | 504 kts | 86° |
| 2026-04-24 23:04 | 40.60850 | 112.54335 | 35019 ft | 505 kts | 89° |
| 2026-04-24 23:04 | 40.60282 | 112.63563 | 35014 ft | 506 kts | 90° |
| 2026-04-24 23:05 | 40.59712 | 112.72776 | 35025 ft | 505 kts | 89° |
| 2026-04-24 23:05 | 40.59135 | 112.80493 | 35022 ft | 506 kts | 92° |
| 2026-04-24 23:06 | 40.58422 | 112.89640 | 35024 ft | 505 kts | 90° |
| 2026-04-24 23:06 | 40.57835 | 112.98836 | 35023 ft | 504 kts | 89° |
| 2026-04-24 23:07 | 40.57246 | 113.08019 | 35032 ft | 503 kts | 89° |
| 2026-04-24 23:07 | 40.56627 | 113.17195 | 35035 ft | 503 kts | 90° |
| 2026-04-24 23:08 | 40.55994 | 113.26337 | 35031 ft | 502 kts | 90° |
| 2026-04-24 23:08 | 40.55353 | 113.35479 | 35018 ft | 502 kts | 90° |
| 2026-04-24 23:09 | 40.54709 | 113.44592 | 35018 ft | 501 kts | 90° |
| 2026-04-24 23:09 | 40.54058 | 113.53711 | 35025 ft | 501 kts | 90° |
| 2026-04-24 23:09 | 40.53730 | 113.58280 | 35199 ft | 504 kts | 90° |
| 2026-04-24 23:10 | 40.53398 | 113.62860 | 35570 ft | 502 kts | 90° |
| 2026-04-24 23:10 | 40.53065 | 113.67412 | 36005 ft | 498 kts | 90° |
| 2026-04-24 23:10 | 40.52733 | 113.71923 | 36428 ft | 496 kts | 90° |
| 2026-04-24 23:10 | 40.52400 | 113.76430 | 36819 ft | 494 kts | 90° |
| 2026-04-24 23:11 | 40.52068 | 113.80938 | 36967 ft | 498 kts | 90° |
| 2026-04-24 23:11 | 40.51392 | 113.90027 | 37007 ft | 500 kts | 90° |
| 2026-04-24 23:12 | 40.50710 | 113.99053 | 37015 ft | 493 kts | 91° |
| 2026-04-24 23:12 | 40.50223 | 114.07946 | 37007 ft | 489 kts | 88° |
| 2026-04-24 23:13 | 40.49902 | 114.16865 | 37025 ft | 488 kts | 88° |
| 2026-04-24 23:13 | 40.49562 | 114.25782 | 37021 ft | 489 kts | 88° |
| 2026-04-24 23:14 | 40.49179 | 114.34717 | 37018 ft | 491 kts | 89° |
| 2026-04-24 23:14 | 40.48775 | 114.43674 | 37015 ft | 492 kts | 89° |
| 2026-04-24 23:15 | 40.48362 | 114.52640 | 37016 ft | 492 kts | 89° |
| 2026-04-24 23:15 | 40.47945 | 114.61621 | 37019 ft | 493 kts | 89° |
| 2026-04-24 23:16 | 40.47520 | 114.70610 | 37012 ft | 493 kts | 89° |
| 2026-04-24 23:16 | 40.47089 | 114.79594 | 37003 ft | 493 kts | 89° |
| 2026-04-24 23:17 | 40.46651 | 114.88572 | 37008 ft | 492 kts | 89° |
| 2026-04-24 23:17 | 40.46207 | 114.97525 | 37003 ft | 492 kts | 90° |
| 2026-04-24 23:18 | 40.45757 | 115.06495 | 37005 ft | 492 kts | 90° |
| 2026-04-24 23:18 | 40.45298 | 115.15463 | 36997 ft | 492 kts | 90° |
| 2026-04-24 23:19 | 40.44833 | 115.24423 | 36999 ft | 491 kts | 90° |
| 2026-04-24 23:19 | 40.44366 | 115.33291 | 36992 ft | 490 kts | 90° |
| 2026-04-24 23:20 | 40.43890 | 115.42212 | 36993 ft | 490 kts | 90° |
| 2026-04-24 23:20 | 40.43408 | 115.51124 | 36995 ft | 489 kts | 90° |
| 2026-04-24 23:21 | 40.42819 | 115.60030 | 37001 ft | 490 kts | 92° |
| 2026-04-24 23:21 | 40.42072 | 115.68915 | 36987 ft | 490 kts | 93° |
| 2026-04-24 23:22 | 40.41317 | 115.77807 | 36993 ft | 490 kts | 93° |
| 2026-04-24 23:22 | 40.40581 | 115.86694 | 36999 ft | 490 kts | 93° |
| 2026-04-24 23:23 | 40.39848 | 115.95590 | 37000 ft | 491 kts | 93° |
| 2026-04-24 23:23 | 40.39108 | 116.04486 | 37002 ft | 491 kts | 93° |
| 2026-04-24 23:24 | 40.38358 | 116.13394 | 36993 ft | 491 kts | 93° |
| 2026-04-24 23:24 | 40.37602 | 116.22292 | 36995 ft | 491 kts | 93° |
| 2026-04-24 23:25 | 40.36843 | 116.31135 | 36982 ft | 491 kts | 94° |
| 2026-04-24 23:25 | 40.36075 | 116.40021 | 36992 ft | 490 kts | 94° |
| 2026-04-24 23:26 | 40.35300 | 116.48904 | 36989 ft | 490 kts | 94° |
| 2026-04-24 23:26 | 40.34520 | 116.57773 | 36985 ft | 490 kts | 94° |
| 2026-04-24 23:27 | 40.33397 | 116.66549 | 36978 ft | 492 kts | 110° |
| 2026-04-24 23:27 | 40.31735 | 116.70476 | 36989 ft | 495 kts | 128° |
| 2026-04-24 23:27 | 40.29264 | 116.73622 | 36993 ft | 497 kts | 144° |
| 2026-04-24 23:27 | 40.26315 | 116.75865 | 36993 ft | 498 kts | 158° |
| 2026-04-24 23:28 | 40.23004 | 116.77102 | 36985 ft | 494 kts | 172° |
| 2026-04-24 23:28 | 40.16179 | 116.78307 | 36989 ft | 497 kts | 174° |
| 2026-04-24 23:29 | 40.09301 | 116.79539 | 36994 ft | 500 kts | 173° |
| 2026-04-24 23:29 | 40.02407 | 116.80894 | 36992 ft | 502 kts | 172° |
| 2026-04-24 23:30 | 39.95491 | 116.82289 | 36985 ft | 503 kts | 172° |
| 2026-04-24 23:30 | 39.88568 | 116.83675 | 36986 ft | 503 kts | 172° |
| 2026-04-24 23:31 | 39.81654 | 116.85051 | 36980 ft | 502 kts | 172° |
| 2026-04-24 23:31 | 39.74753 | 116.86447 | 36975 ft | 502 kts | 172° |
| 2026-04-24 23:32 | 39.67870 | 116.87884 | 36980 ft | 501 kts | 172° |
| 2026-04-24 23:32 | 39.60981 | 116.89320 | 36976 ft | 501 kts | 171° |
| 2026-04-24 23:33 | 39.54105 | 116.90743 | 36986 ft | 501 kts | 171° |
| 2026-04-24 23:33 | 39.47217 | 116.92164 | 36982 ft | 501 kts | 171° |
| 2026-04-24 23:34 | 39.40373 | 116.93572 | 36984 ft | 502 kts | 171° |
| 2026-04-24 23:34 | 39.33479 | 116.94988 | 36992 ft | 502 kts | 171° |
| 2026-04-24 23:35 | 39.26574 | 116.96404 | 36981 ft | 503 kts | 171° |
| 2026-04-24 23:35 | 39.19720 | 116.98063 | 36974 ft | 500 kts | 159° |
| 2026-04-24 23:35 | 39.16654 | 117.00120 | 37002 ft | 497 kts | 141° |
| 2026-04-24 23:36 | 39.14184 | 117.03187 | 37001 ft | 493 kts | 125° |
| 2026-04-24 23:36 | 39.12344 | 117.06885 | 36987 ft | 490 kts | 113° |
| 2026-04-24 23:36 | 39.11173 | 117.10962 | 36982 ft | 483 kts | 97° |
| 2026-04-24 23:37 | 39.10179 | 117.19473 | 36993 ft | 482 kts | 95° |
| 2026-04-24 23:37 | 39.08583 | 117.32324 | 37002 ft | 487 kts | 96° |
| 2026-04-24 23:38 | 39.07765 | 117.40945 | 36999 ft | 484 kts | 88° |
| 2026-04-24 23:38 | 39.07694 | 117.49596 | 37005 ft | 483 kts | 87° |
| 2026-04-24 23:39 | 39.07645 | 117.58246 | 37004 ft | 482 kts | 88° |
| 2026-04-24 23:39 | 39.07548 | 117.66875 | 37006 ft | 481 kts | 88° |
| 2026-04-24 23:40 | 39.07427 | 117.75480 | 37003 ft | 480 kts | 88° |
| 2026-04-24 23:40 | 39.07301 | 117.84060 | 37016 ft | 479 kts | 88° |
| 2026-04-24 23:41 | 39.07173 | 117.92577 | 37022 ft | 479 kts | 88° |
| 2026-04-24 23:41 | 39.07026 | 118.01140 | 37019 ft | 479 kts | 90° |
| 2026-04-24 23:42 | 39.06119 | 118.09648 | 37033 ft | 482 kts | 99° |
| 2026-04-24 23:42 | 39.04716 | 118.18084 | 37025 ft | 483 kts | 99° |
| 2026-04-24 23:43 | 39.03329 | 118.26539 | 37035 ft | 483 kts | 99° |
| 2026-04-24 23:43 | 39.01972 | 118.35019 | 37032 ft | 484 kts | 99° |
| 2026-04-24 23:44 | 39.00615 | 118.43504 | 37031 ft | 484 kts | 99° |
| 2026-04-24 23:44 | 38.99247 | 118.51986 | 37033 ft | 485 kts | 99° |
| 2026-04-24 23:45 | 38.97876 | 118.60470 | 37034 ft | 485 kts | 99° |
| 2026-04-24 23:45 | 38.96508 | 118.68909 | 37039 ft | 485 kts | 99° |
| 2026-04-24 23:46 | 38.95125 | 118.77401 | 37038 ft | 485 kts | 99° |
| 2026-04-24 23:46 | 38.93738 | 118.85882 | 37042 ft | 485 kts | 99° |
| 2026-04-24 23:47 | 38.92344 | 118.94357 | 37041 ft | 485 kts | 99° |
| 2026-04-24 23:47 | 38.90945 | 119.02829 | 37046 ft | 485 kts | 100° |
| 2026-04-24 23:48 | 38.89528 | 119.11314 | 37044 ft | 485 kts | 100° |
| 2026-04-24 23:48 | 38.88103 | 119.19788 | 37049 ft | 486 kts | 100° |
| 2026-04-24 23:49 | 38.86673 | 119.28260 | 37046 ft | 486 kts | 100° |
| 2026-04-24 23:49 | 38.85237 | 119.36734 | 37050 ft | 486 kts | 100° |
| 2026-04-24 23:50 | 38.83795 | 119.45204 | 37052 ft | 486 kts | 101° |
| 2026-04-24 23:50 | 38.82346 | 119.53683 | 37055 ft | 487 kts | 101° |
| 2026-04-24 23:51 | 38.80898 | 119.62112 | 37058 ft | 487 kts | 101° |
| 2026-04-24 23:51 | 38.79434 | 119.70594 | 37056 ft | 487 kts | 101° |
| 2026-04-24 23:52 | 38.77964 | 119.79085 | 37059 ft | 488 kts | 101° |
| 2026-04-24 23:52 | 38.76525 | 119.87581 | 37062 ft | 488 kts | 100° |
| 2026-04-24 23:53 | 38.75170 | 119.96103 | 37065 ft | 488 kts | 101° |
| 2026-04-24 23:53 | 38.73731 | 120.04607 | 37066 ft | 489 kts | 101° |
| 2026-04-24 23:54 | 38.72192 | 120.13075 | 37051 ft | 487 kts | 109° |
| 2026-04-24 23:54 | 38.71257 | 120.15688 | 37064 ft | 488 kts | 121° |
| 2026-04-24 23:54 | 38.69137 | 120.19059 | 37073 ft | 488 kts | 138° |
| 2026-04-24 23:55 | 38.66398 | 120.21620 | 37081 ft | 488 kts | 152° |
| 2026-04-24 23:55 | 38.63272 | 120.23259 | 37068 ft | 485 kts | 167° |
| 2026-04-24 23:55 | 38.59124 | 120.25231 | 37065 ft | 486 kts | 147° |
| 2026-04-24 23:55 | 38.56597 | 120.28109 | 37086 ft | 492 kts | 127° |
| 2026-04-24 23:56 | 38.54936 | 120.31921 | 37086 ft | 495 kts | 108° |
| 2026-04-24 23:56 | 38.54404 | 120.34811 | 37080 ft | 496 kts | 94° |
| 2026-04-24 23:56 | 38.54566 | 120.39191 | 37076 ft | 494 kts | 75° |
| 2026-04-24 23:56 | 38.56153 | 120.44612 | 37085 ft | 493 kts | 65° |
| 2026-04-24 23:57 | 38.56939 | 120.47385 | 37048 ft | 493 kts | 76° |
| 2026-04-24 23:57 | 38.57040 | 120.53152 | 37086 ft | 496 kts | 101° |
| 2026-04-24 23:57 | 38.55694 | 120.60285 | 37089 ft | 498 kts | 105° |
| 2026-04-24 23:58 | 38.53941 | 120.68918 | 37078 ft | 499 kts | 103° |
| 2026-04-24 23:58 | 38.52436 | 120.77494 | 37083 ft | 498 kts | 102° |
| 2026-04-24 23:59 | 38.51035 | 120.86129 | 37085 ft | 496 kts | 101° |
| 2026-04-24 23:59 | 38.49633 | 120.94738 | 37086 ft | 494 kts | 102° |
| 2026-04-25 00:00 | 38.48213 | 121.03318 | 37086 ft | 493 kts | 102° |
| 2026-04-25 00:00 | 38.46788 | 121.11880 | 37085 ft | 493 kts | 102° |
| 2026-04-25 00:01 | 38.45412 | 121.20456 | 37084 ft | 493 kts | 101° |
| 2026-04-25 00:01 | 38.44095 | 121.29037 | 37081 ft | 494 kts | 102° |
| 2026-04-25 00:02 | 38.42671 | 121.37620 | 37086 ft | 495 kts | 102° |
| 2026-04-25 00:02 | 38.41246 | 121.46210 | 37092 ft | 496 kts | 102° |
| 2026-04-25 00:03 | 38.39818 | 121.54822 | 37088 ft | 497 kts | 102° |
| 2026-04-25 00:03 | 38.38380 | 121.63440 | 37092 ft | 497 kts | 102° |
| 2026-04-25 00:04 | 38.36934 | 121.72069 | 37092 ft | 498 kts | 103° |
| 2026-04-25 00:04 | 38.35491 | 121.80636 | 37092 ft | 498 kts | 103° |
| 2026-04-25 00:05 | 38.34034 | 121.89256 | 37100 ft | 498 kts | 103° |
| 2026-04-25 00:05 | 38.32569 | 121.97875 | 37108 ft | 498 kts | 103° |
| 2026-04-25 00:06 | 38.31098 | 122.06496 | 37111 ft | 498 kts | 103° |
| 2026-04-25 00:06 | 38.29621 | 122.15109 | 37113 ft | 498 kts | 103° |
| 2026-04-25 00:07 | 38.28140 | 122.23712 | 37118 ft | 498 kts | 103° |
| 2026-04-25 00:07 | 38.26815 | 122.32364 | 37115 ft | 498 kts | 101° |
| 2026-04-25 00:08 | 38.25477 | 122.40995 | 37106 ft | 496 kts | 109° |
| 2026-04-25 00:08 | 38.24140 | 122.45023 | 37119 ft | 493 kts | 120° |
| 2026-04-25 00:08 | 38.22321 | 122.48699 | 37124 ft | 491 kts | 129° |
| 2026-04-25 00:09 | 38.17642 | 122.54963 | 37125 ft | 488 kts | 138° |
| 2026-04-25 00:09 | 38.12790 | 122.61028 | 37121 ft | 490 kts | 137° |
| 2026-04-25 00:10 | 38.08010 | 122.67200 | 37122 ft | 491 kts | 136° |
| 2026-04-25 00:10 | 38.03266 | 122.73372 | 37129 ft | 491 kts | 136° |
| 2026-04-25 00:11 | 37.98490 | 122.79579 | 37126 ft | 492 kts | 136° |
| 2026-04-25 00:11 | 37.93712 | 122.85770 | 37130 ft | 491 kts | 137° |
| 2026-04-25 00:12 | 37.88929 | 122.91953 | 37127 ft | 491 kts | 137° |
| 2026-04-25 00:12 | 37.84151 | 122.98115 | 37133 ft | 490 kts | 137° |
| 2026-04-25 00:13 | 37.79369 | 123.04272 | 37141 ft | 490 kts | 137° |
| 2026-04-25 00:13 | 37.74587 | 123.10416 | 37142 ft | 490 kts | 137° |
| 2026-04-25 00:14 | 37.69805 | 123.16549 | 37138 ft | 490 kts | 137° |
| 2026-04-25 00:14 | 37.65022 | 123.22672 | 37146 ft | 490 kts | 137° |
| 2026-04-25 00:15 | 37.60233 | 123.28793 | 37147 ft | 490 kts | 137° |
| 2026-04-25 00:15 | 37.55595 | 123.35009 | 37152 ft | 492 kts | 131° |
| 2026-04-25 00:16 | 37.51485 | 123.41906 | 37158 ft | 493 kts | 129° |
| 2026-04-25 00:16 | 37.47414 | 123.48856 | 37154 ft | 493 kts | 129° |
| 2026-04-25 00:17 | 37.43312 | 123.55771 | 37150 ft | 493 kts | 130° |
| 2026-04-25 00:17 | 37.39180 | 123.62676 | 37154 ft | 494 kts | 130° |
| 2026-04-25 00:18 | 37.35044 | 123.69567 | 37168 ft | 494 kts | 130° |
| 2026-04-25 00:18 | 37.30910 | 123.76448 | 37171 ft | 494 kts | 130° |
| 2026-04-25 00:19 | 37.26768 | 123.83329 | 37168 ft | 494 kts | 130° |
| 2026-04-25 00:19 | 37.22623 | 123.90204 | 37171 ft | 494 kts | 130° |
| 2026-04-25 00:20 | 37.18670 | 123.97234 | 37167 ft | 496 kts | 119° |
| 2026-04-25 00:20 | 37.17427 | 124.01285 | 37181 ft | 501 kts | 107° |
| 2026-04-25 00:20 | 37.16810 | 124.05597 | 37180 ft | 505 kts | 95° |
| 2026-04-25 00:21 | 37.17139 | 124.14421 | 37175 ft | 508 kts | 87° |
| 2026-04-25 00:21 | 37.17658 | 124.23256 | 37113 ft | 503 kts | 84° |
| 2026-04-25 00:22 | 37.18226 | 124.27509 | 36589 ft | 488 kts | 77° |
| 2026-04-25 00:22 | 37.19132 | 124.31566 | 35615 ft | 480 kts | 74° |
| 2026-04-25 00:22 | 37.20078 | 124.35585 | 34309 ft | 481 kts | 74° |
| 2026-04-25 00:22 | 37.21020 | 124.39604 | 32728 ft | 480 kts | 75° |
| 2026-04-25 00:23 | 37.21952 | 124.43633 | 31015 ft | 482 kts | 75° |
| 2026-04-25 00:23 | 37.22875 | 124.47676 | 29335 ft | 480 kts | 75° |
| 2026-04-25 00:23 | 37.23776 | 124.51668 | 27804 ft | 472 kts | 75° |
| 2026-04-25 00:23 | 37.24655 | 124.55587 | 26525 ft | 462 kts | 75° |
| 2026-04-25 00:24 | 37.25496 | 124.59356 | 26041 ft | 435 kts | 75° |
| 2026-04-25 00:24 | 37.26294 | 124.62934 | 25494 ft | 416 kts | 75° |
| 2026-04-25 00:24 | 37.27056 | 124.66358 | 25001 ft | 401 kts | 75° |
| 2026-04-25 00:24 | 37.27788 | 124.69656 | 24520 ft | 398 kts | 75° |
| 2026-04-25 00:25 | 37.28555 | 124.73120 | 24070 ft | 417 kts | 75° |
| 2026-04-25 00:25 | 37.29347 | 124.76712 | 23491 ft | 446 kts | 75° |
| 2026-04-25 00:25 | 37.30195 | 124.80554 | 22862 ft | 452 kts | 75° |
| 2026-04-25 00:25 | 37.31032 | 124.84340 | 22246 ft | 448 kts | 75° |
| 2026-04-25 00:26 | 37.31850 | 124.88039 | 21692 ft | 442 kts | 75° |
| 2026-04-25 00:26 | 37.32667 | 124.91742 | 21141 ft | 436 kts | 75° |
| 2026-04-25 00:26 | 37.33470 | 124.95390 | 20600 ft | 431 kts | 75° |
| 2026-04-25 00:26 | 37.34264 | 124.99003 | 20065 ft | 426 kts | 75° |
| 2026-04-25 00:27 | 37.35047 | 125.02578 | 19538 ft | 422 kts | 75° |
| 2026-04-25 00:27 | 37.35822 | 125.06115 | 19013 ft | 418 kts | 75° |
| 2026-04-25 00:27 | 37.36588 | 125.09625 | 18490 ft | 415 kts | 75° |
| 2026-04-25 00:27 | 37.37349 | 125.13110 | 17889 ft | 412 kts | 75° |
| 2026-04-25 00:28 | 37.38101 | 125.16560 | 17325 ft | 407 kts | 75° |
| 2026-04-25 00:28 | 37.38844 | 125.19978 | 16817 ft | 403 kts | 75° |
| 2026-04-25 00:28 | 37.39578 | 125.23357 | 16290 ft | 399 kts | 75° |
| 2026-04-25 00:28 | 37.40303 | 125.26699 | 15785 ft | 394 kts | 75° |
| 2026-04-25 00:29 | 37.41022 | 125.30019 | 15279 ft | 390 kts | 75° |
| 2026-04-25 00:29 | 37.41730 | 125.33291 | 14784 ft | 387 kts | 75° |
| 2026-04-25 00:29 | 37.42432 | 125.36541 | 14285 ft | 383 kts | 75° |
| 2026-04-25 00:29 | 37.43127 | 125.39766 | 13761 ft | 380 kts | 75° |
| 2026-04-25 00:30 | 37.43816 | 125.42968 | 13084 ft | 380 kts | 75° |
| 2026-04-25 00:30 | 37.44505 | 125.46176 | 12549 ft | 377 kts | 75° |
| 2026-04-25 00:30 | 37.45186 | 125.49346 | 12020 ft | 374 kts | 75° |
| 2026-04-25 00:30 | 37.45861 | 125.52494 | 11536 ft | 370 kts | 75° |
| 2026-04-25 00:31 | 37.46528 | 125.55612 | 11069 ft | 367 kts | 75° |
| 2026-04-25 00:31 | 37.47178 | 125.58653 | 10926 ft | 354 kts | 75° |
| 2026-04-25 00:31 | 37.47807 | 125.61596 | 10760 ft | 342 kts | 75° |
| 2026-04-25 00:31 | 37.48416 | 125.64451 | 10613 ft | 332 kts | 75° |
| 2026-04-25 00:32 | 37.49004 | 125.67211 | 10469 ft | 321 kts | 75° |
| 2026-04-25 00:32 | 37.49573 | 125.69888 | 10334 ft | 312 kts | 75° |
| 2026-04-25 00:32 | 37.50106 | 125.72398 | 10189 ft | 289 kts | 75° |
| 2026-04-25 00:32 | 37.50614 | 125.74789 | 10094 ft | 278 kts | 75° |
| 2026-04-25 00:33 | 37.51104 | 125.77104 | 9926 ft | 270 kts | 75° |
| 2026-04-25 00:33 | 37.51588 | 125.79389 | 9627 ft | 269 kts | 75° |
| 2026-04-25 00:33 | 37.52073 | 125.81682 | 9347 ft | 274 kts | 75° |
| 2026-04-25 00:33 | 37.52568 | 125.84025 | 9060 ft | 279 kts | 75° |
| 2026-04-25 00:34 | 37.53066 | 125.86387 | 8760 ft | 278 kts | 75° |
| 2026-04-25 00:34 | 37.53559 | 125.88722 | 8444 ft | 273 kts | 75° |
| 2026-04-25 00:34 | 37.54031 | 125.90963 | 8099 ft | 256 kts | 75° |
| 2026-04-25 00:34 | 37.54471 | 125.93052 | 7830 ft | 237 kts | 75° |
| 2026-04-25 00:35 | 37.54882 | 125.95011 | 7559 ft | 230 kts | 75° |
| 2026-04-25 00:35 | 37.55296 | 125.96981 | 7320 ft | 234 kts | 75° |
| 2026-04-25 00:35 | 37.55711 | 125.98960 | 7059 ft | 233 kts | 75° |
| 2026-04-25 00:35 | 37.56114 | 126.00879 | 6802 ft | 232 kts | 75° |
| 2026-04-25 00:36 | 37.56524 | 126.02839 | 6537 ft | 231 kts | 75° |
| 2026-04-25 00:36 | 37.56933 | 126.04794 | 6260 ft | 230 kts | 75° |
| 2026-04-25 00:36 | 37.57339 | 126.06734 | 5986 ft | 228 kts | 75° |
| 2026-04-25 00:36 | 37.57742 | 126.08664 | 5719 ft | 227 kts | 75° |
| 2026-04-25 00:37 | 37.58142 | 126.10581 | 5454 ft | 225 kts | 75° |
| 2026-04-25 00:37 | 37.58539 | 126.12485 | 5207 ft | 224 kts | 75° |
| 2026-04-25 00:37 | 37.58935 | 126.14382 | 4961 ft | 223 kts | 76° |
| 2026-04-25 00:37 | 37.59328 | 126.16270 | 4693 ft | 223 kts | 75° |
| 2026-04-25 00:38 | 37.59720 | 126.18153 | 4434 ft | 220 kts | 76° |
| 2026-04-25 00:38 | 37.60097 | 126.19969 | 4188 ft | 206 kts | 76° |
| 2026-04-25 00:38 | 37.60455 | 126.21689 | 3931 ft | 201 kts | 76° |
| 2026-04-25 00:38 | 37.60690 | 126.22822 | 3783 ft | 202 kts | 76° |
| 2026-04-25 00:39 | 37.61163 | 126.25105 | 3583 ft | 199 kts | 76° |
| 2026-04-25 00:39 | 37.61386 | 126.26219 | 3512 ft | 197 kts | 80° |
| 2026-04-25 00:39 | 37.60993 | 126.28397 | 3393 ft | 190 kts | 131° |
| 2026-04-25 00:39 | 37.60129 | 126.29560 | 3143 ft | 176 kts | 140° |
| 2026-04-25 00:40 | 37.59272 | 126.30555 | 2937 ft | 160 kts | 141° |
| 2026-04-25 00:40 | 37.58452 | 126.31466 | 2718 ft | 156 kts | 144° |
| 2026-04-25 00:40 | 37.57591 | 126.32310 | 2525 ft | 157 kts | 146° |
| 2026-04-25 00:40 | 37.56711 | 126.33120 | 2324 ft | 156 kts | 147° |
| 2026-04-25 00:41 | 37.55835 | 126.33911 | 2102 ft | 155 kts | 147° |
| 2026-04-25 00:41 | 37.54961 | 126.34695 | 1895 ft | 153 kts | 146° |
| 2026-04-25 00:41 | 37.54095 | 126.35469 | 1700 ft | 152 kts | 146° |
| 2026-04-25 00:41 | 37.53234 | 126.36240 | 1479 ft | 151 kts | 146° |
| 2026-04-25 00:42 | 37.52378 | 126.37006 | 1284 ft | 151 kts | 146° |
| 2026-04-25 00:42 | 37.51524 | 126.37768 | 1081 ft | 149 kts | 146° |
| 2026-04-25 00:42 | 37.50682 | 126.38521 | 878 ft | 148 kts | 145° |
| 2026-04-25 00:43 | 37.50065 | 126.39073 | 732 ft | 147 kts | 145° |
| 2026-04-25 00:43 | 37.50023 | 126.39111 | 726 ft | 147 kts | 145° |
| 2026-04-25 00:43 | 37.49192 | 126.39853 | 527 ft | 146 kts | 145° |
| 2026-04-25 00:43 | 37.48364 | 126.40586 | 318 ft | 144 kts | 144° |
| 2026-04-25 00:44 | 37.47548 | 126.41317 | 128 ft | 144 kts | 145° |
| 2026-04-25 00:44 | 37.46510 | 126.42241 | 39 ft | 122 kts | 144° |
| 2026-04-25 00:44 | 37.46117 | 126.42590 | 38 ft | 86 kts | 144° |
| 2026-04-25 00:44 | 37.45777 | 126.42893 | 38 ft | 40 kts | 144° |
| 2026-04-25 00:45 | 37.45599 | 126.43174 | 39 ft | 24 kts | 116° |
| 2026-04-25 00:45 | 37.45522 | 126.43362 | 37 ft | 24 kts | 121° |
| 2026-04-25 00:45 | 37.45429 | 126.43470 | 37 ft | 17 kts | 144° |
| 2026-04-25 00:45 | 37.45334 | 126.43554 | 37 ft | 17 kts | 145° |
| 2026-04-25 00:46 | 37.45311 | 126.43667 | 35 ft | 12 kts | 58° |
| 2026-04-25 00:46 | 37.45360 | 126.43757 | 37 ft | 13 kts | 53° |
| 2026-04-25 00:46 | 37.45297 | 126.43927 | 37 ft | 13 kts | 145° |
| 2026-04-25 00:47 | 37.45225 | 126.43992 | 37 ft | 13 kts | 145° |
| 2026-04-25 00:47 | 37.45167 | 126.44074 | 37 ft | 13 kts | 112° |
| 2026-04-25 00:47 | 37.45106 | 126.44157 | 37 ft | 13 kts | 143° |
| 2026-04-25 00:47 | 37.45035 | 126.44227 | 37 ft | 13 kts | 135° |
| 2026-04-25 00:48 | 37.44979 | 126.44318 | 37 ft | 13 kts | 126° |
| 2026-04-25 00:48 | 37.44926 | 126.44411 | 37 ft | 13 kts | 124° |
| 2026-04-25 00:48 | 37.44875 | 126.44502 | 37 ft | 7 kts | 126° |
| 2026-04-25 00:48 | 37.44852 | 126.44559 | 37 ft | 8 kts | 96° |
| 2026-04-25 00:49 | 37.44883 | 126.44614 | 37 ft | 8 kts | 37° |
| 2026-04-25 00:49 | 37.44899 | 126.44627 | 37 ft | 2 kts | 31° |
| 2026-04-25 00:49 | 37.44913 | 126.44639 | 37 ft | 3 kts | 36° |
| 2026-04-25 00:49 | 37.44917 | 126.44643 | 37 ft | 0 kts | 36° |